Sutherlin, Virginia
Current Conditions -  °F | °C
As of 4:53 PM on Sunday 25 Jan 2015 (Local Time) from KDAN Reporting Station
Clear Clear  
Wind Chill: 54°   Ceiling: Unl
Heat Index: 54°   Visibility: 10mi
Dew Point: 30°   Wind: 7mph
Humidity: 40%   Direction: 180°S
Pressure: 29.79"   Gusts: NA
Location:  36.63°N, 79.21°W
Report Text: KDAN 252153Z AUTO 18006KT 10SM CLR 12/M01 A2979 RMK AO2 SLP083 T01221011
Loading
Personal Weather Stations






























Interactive Weather Map New forecast layout! Learn more

10-Day Weather Forecast

Advertisements
Track Severe Weather on mobile